Time;durP1;ratioP1;P1;durP2;ratioP2;P2;SDS_P1;SDS_P2;PMS_P1;PMS_P2;Temp;Humidity;BMP_temperature;BMP_pressure;BME280_temperature;BME280_humidity;BME280_pressure;Samples;Min_cycle;Max_cycle;Signal;HPM_P1;HPM_P2
2021/11/18 00:01:30;;;;;;;12.52;3.50;;;8.20;85.20;;;;;;4995902;28;92997;-70
2021/11/18 00:04:07;;;;;;;12.25;3.42;;;8.20;85.80;;;;;;4977957;28;92661;-70
2021/11/18 00:06:34;;;;;;;13.85;3.35;;;8.20;85.70;;;;;;4995811;28;92329;-70
2021/11/18 00:09:02;;;;;;;18.88;3.53;;;8.30;85.40;;;;;;4994377;28;95780;-70
2021/11/18 00:11:30;;;;;;;13.02;2.97;;;8.30;85.30;;;;;;4994981;28;96318;-70
2021/11/18 00:13:57;;;;;;;12.82;3.22;;;8.30;85.50;;;;;;4995799;28;92359;-70
2021/11/18 00:16:24;;;;;;;9.43;3.35;;;8.30;85.40;;;;;;4995584;28;92537;-70
2021/11/18 00:18:51;;;;;;;14.85;3.60;;;8.30;85.40;;;;;;4978161;28;93102;-71
2021/11/18 00:21:29;;;;;;;12.20;3.20;;;8.30;85.30;;;;;;4995296;28;92877;-70
2021/11/18 00:23:58;;;;;;;14.50;3.35;;;8.20;85.20;;;;;;4995612;28;92468;-70
2021/11/18 00:26:28;;;;;;;17.33;3.65;;;8.20;85.40;;;;;;4995500;28;91718;-70
2021/11/18 00:28:55;;;;;;;13.55;3.70;;;8.20;85.70;;;;;;4995368;28;92936;-70
2021/11/18 00:31:26;;;;;;;13.80;3.67;;;8.20;85.70;;;;;;4995109;28;92802;-70
2021/11/18 00:33:53;;;;;;;14.95;4.07;;;8.20;85.80;;;;;;4976607;28;94951;-70
2021/11/18 00:36:20;;;;;;;20.17;4.45;;;8.20;85.90;;;;;;4960879;28;92647;-70
2021/11/18 00:38:48;;;;;;;17.67;3.63;;;8.10;85.90;;;;;;4980049;28;94170;-70
2021/11/18 00:41:15;;;;;;;16.35;3.85;;;8.10;86.10;;;;;;4980920;28;92944;-70
2021/11/18 00:43:44;;;;;;;14.45;3.63;;;8.10;86.20;;;;;;4964526;28;92535;-70
2021/11/18 00:46:12;;;;;;;14.80;4.18;;;8.20;86.20;;;;;;4998960;28;92397;-70
2021/11/18 00:48:41;;;;;;;16.13;4.80;;;8.10;86.20;;;;;;4998495;28;93047;-70
2021/11/18 00:51:12;;;;;;;10.52;3.45;;;8.10;86.30;;;;;;4980735;28;95282;-70
2021/11/18 00:53:46;;;;;;;18.23;4.43;;;8.20;86.20;;;;;;4980710;28;92426;-70
2021/11/18 00:56:20;;;;;;;21.48;4.47;;;8.20;86.40;;;;;;4998963;28;92710;-71
2021/11/18 00:58:49;;;;;;;19.73;4.15;;;8.20;87.00;;;;;;4979161;28;96565;-70
2021/11/18 01:01:17;;;;;;;19.40;4.95;;;8.20;87.30;;;;;;4980352;28;97625;-70
2021/11/18 01:03:45;;;;;;;14.27;3.90;;;8.10;86.60;;;;;;4964265;28;92524;-70
2021/11/18 01:06:12;;;;;;;17.23;5.07;;;8.20;87.70;;;;;;4980733;28;92838;-70
2021/11/18 01:08:39;;;;;;;17.50;4.65;;;8.20;86.80;;;;;;4998292;28;92413;-70
2021/11/18 01:11:13;;;;;;;15.60;4.00;;;8.20;87.00;;;;;;4980034;28;94518;-70
2021/11/18 01:13:42;;;;;;;17.90;3.65;;;8.30;86.70;;;;;;4998327;28;92343;-70
2021/11/18 01:16:12;;;;;;;21.10;4.40;;;8.30;86.70;;;;;;4998577;28;91725;-70
2021/11/18 01:18:39;;;;;;;13.98;3.80;;;8.30;86.70;;;;;;4980132;28;95522;-70
2021/11/18 01:21:07;;;;;;;21.85;4.20;;;8.40;86.60;;;;;;4980235;28;93951;-70
2021/11/18 01:23:38;;;;;;;18.63;4.60;;;8.40;86.70;;;;;;4979473;28;95163;-70
2021/11/18 01:26:11;;;;;;;12.20;4.35;;;8.50;86.60;;;;;;4980154;28;93291;-70
2021/11/18 01:28:39;;;;;;;12.90;4.23;;;8.50;86.40;;;;;;4979849;28;95335;-70
2021/11/18 01:31:06;;;;;;;15.32;4.35;;;8.50;86.40;;;;;;4979707;28;94588;-70
2021/11/18 01:33:35;;;;;;;14.60;3.95;;;8.60;86.30;;;;;;4979989;28;92560;-70
2021/11/18 01:36:02;;;;;;;14.15;3.88;;;8.60;86.20;;;;;;4979960;28;92509;-70
2021/11/18 01:38:32;;;;;;;14.27;4.57;;;8.60;86.60;;;;;;4979513;28;95292;-70
2021/11/18 01:41:23;;;;;;;19.20;5.20;;;8.60;86.50;;;;;;4980371;28;95453;-70
2021/11/18 01:43:54;;;;;;;15.77;4.38;;;8.60;86.40;;;;;;4979551;28;92556;-70
2021/11/18 01:46:25;;;;;;;18.67;4.53;;;8.70;86.30;;;;;;4980054;28;92516;-70
2021/11/18 01:48:55;;;;;;;16.90;5.05;;;8.70;86.20;;;;;;4978394;28;98077;-70
2021/11/18 01:51:32;;;;;;;14.45;4.82;;;8.70;86.30;;;;;;4979729;28;97899;-70
2021/11/18 01:54:00;;;;;;;14.73;4.40;;;8.70;86.50;;;;;;4979772;28;92417;-70
2021/11/18 01:56:31;;;;;;;18.20;4.75;;;8.70;86.50;;;;;;4979327;28;92554;-70
2021/11/18 01:59:05;;;;;;;17.20;4.50;;;8.80;86.40;;;;;;4979503;28;95539;-70
2021/11/18 02:01:41;;;;;;;15.45;4.88;;;8.80;86.30;;;;;;4997353;28;93060;-70
2021/11/18 02:04:15;;;;;;;14.60;4.50;;;8.80;86.40;;;;;;4979649;28;92499;-70
2021/11/18 02:06:56;;;;;;;19.27;5.63;;;8.80;86.60;;;;;;4979533;28;91841;-70
2021/11/18 02:09:27;;;;;;;17.35;4.68;;;8.90;86.60;;;;;;4979331;28;96081;-71
2021/11/18 02:12:08;;;;;;;20.75;4.85;;;8.90;86.30;;;;;;4979325;28;94888;-70
2021/11/18 02:14:37;;;;;;;19.20;4.53;;;8.90;86.60;;;;;;4977920;28;94946;-70
2021/11/18 02:17:06;;;;;;;21.45;5.10;;;8.90;86.30;;;;;;4997300;28;94280;-70
2021/11/18 02:19:59;;;;;;;18.95;5.60;;;8.90;86.60;;;;;;4978979;28;94985;-70
2021/11/18 02:22:28;;;;;;;21.65;5.32;;;9.00;86.50;;;;;;4978920;28;94537;-70
2021/11/18 02:25:02;;;;;;;18.38;5.43;;;9.00;86.50;;;;;;4979079;28;92532;-70
2021/11/18 02:27:31;;;;;;;15.98;5.25;;;9.00;86.40;;;;;;4978912;28;92624;-70
2021/11/18 02:29:59;;;;;;;20.33;5.63;;;9.00;86.30;;;;;;4979206;28;95471;-70
2021/11/18 02:32:33;;;;;;;19.70;5.35;;;9.00;86.20;;;;;;4963440;28;95299;-70
2021/11/18 02:35:15;;;;;;;21.52;5.65;;;9.10;86.50;;;;;;4979126;28;92558;-70
2021/11/18 02:37:43;;;;;;;19.92;5.28;;;9.10;86.90;;;;;;4996668;28;92447;-70
2021/11/18 02:40:11;;;;;;;18.40;5.18;;;9.10;86.50;;;;;;4977466;28;97830;-70
2021/11/18 02:42:38;;;;;;;21.38;5.20;;;9.20;86.30;;;;;;4977942;28;97913;-70
2021/11/18 02:45:11;;;;;;;21.63;5.70;;;9.20;86.40;;;;;;4979147;28;92522;-70
2021/11/18 02:47:39;;;;;;;20.88;5.90;;;9.30;86.30;;;;;;4978965;28;93078;-70
2021/11/18 02:50:09;;;;;;;25.40;5.63;;;9.30;86.00;;;;;;4978556;28;95144;-70
2021/11/18 02:52:43;;;;;;;20.98;6.32;;;9.30;85.90;;;;;;4978439;28;95291;-70
2021/11/18 02:55:20;;;;;;;22.55;5.60;;;9.30;85.70;;;;;;4979029;28;92873;-70
2021/11/18 02:57:47;;;;;;;21.15;6.45;;;9.40;86.00;;;;;;4997298;28;92175;-70
2021/11/18 03:00:38;;;;;;;21.13;5.60;;;9.40;85.80;;;;;;4961911;28;94168;-70
2021/11/18 03:03:05;;;;;;;20.98;6.20;;;9.50;86.00;;;;;;4978519;28;95500;-70
2021/11/18 03:05:32;;;;;;;23.35;6.63;;;9.40;86.10;;;;;;4961390;28;94941;-70
2021/11/18 03:07:59;;;;;;;20.08;5.88;;;9.50;85.70;;;;;;4962660;28;92874;-70
2021/11/18 03:10:28;;;;;;;21.08;5.97;;;9.50;85.60;;;;;;4978423;28;94323;-70
2021/11/18 03:12:59;;;;;;;15.93;6.03;;;9.50;85.70;;;;;;4978080;28;95698;-70
2021/11/18 03:15:26;;;;;;;22.50;6.47;;;9.50;85.60;;;;;;4978460;28;92494;-70
2021/11/18 03:17:53;;;;;;;22.42;6.38;;;9.50;85.50;;;;;;4978318;28;92387;-70
2021/11/18 03:20:26;;;;;;;16.38;5.43;;;9.50;85.70;;;;;;4962616;28;95534;-70
2021/11/18 03:22:54;;;;;;;21.10;5.53;;;9.50;85.70;;;;;;4978330;28;95595;-70
2021/11/18 03:25:25;;;;;;;22.33;5.90;;;9.50;85.70;;;;;;4978640;28;92402;-70
2021/11/18 03:27:58;;;;;;;20.35;5.93;;;9.50;85.50;;;;;;4978170;28;92515;-70
2021/11/18 03:30:32;;;;;;;22.10;6.82;;;9.50;85.40;;;;;;4976991;28;97721;-70
2021/11/18 03:33:26;;;;;;;22.98;6.53;;;9.50;85.50;;;;;;4978167;28;97809;-70
2021/11/18 03:35:55;;;;;;;23.55;7.05;;;9.50;85.60;;;;;;4996099;28;92586;-70
2021/11/18 03:38:26;;;;;;;16.77;5.22;;;9.50;85.70;;;;;;4978503;28;92466;-70
2021/11/18 03:41:09;;;;;;;25.65;6.20;;;9.50;85.50;;;;;;4978198;28;95484;-70
2021/11/18 03:43:45;;;;;;;30.15;6.95;;;9.40;85.50;;;;;;4977435;28;95346;-70
2021/11/18 03:46:14;;;;;;;21.65;6.85;;;9.40;85.60;;;;;;4978154;28;92521;-70
2021/11/18 03:48:42;;;;;;;25.33;6.53;;;9.40;85.80;;;;;;4978020;28;92283;-70
2021/11/18 03:51:10;;;;;;;23.63;6.88;;;9.40;86.00;;;;;;4978015;28;95545;-70
2021/11/18 03:53:40;;;;;;;21.98;6.95;;;9.40;86.10;;;;;;4977754;28;95301;-70
2021/11/18 03:56:11;;;;;;;18.83;6.32;;;9.40;85.90;;;;;;4977029;28;94911;-70
2021/11/18 03:58:39;;;;;;;23.85;7.20;;;9.40;85.80;;;;;;4977977;28;92535;-71
2021/11/18 04:01:08;;;;;;;21.73;6.93;;;9.40;85.80;;;;;;4977685;28;95603;-70
2021/11/18 04:03:37;;;;;;;22.08;6.50;;;9.40;85.80;;;;;;4977758;28;95613;-70
2021/11/18 04:06:06;;;;;;;23.50;6.50;;;9.40;85.90;;;;;;4977283;28;92590;-70
2021/11/18 04:08:49;;;;;;;27.00;7.60;;;9.50;85.80;;;;;;4977637;28;92493;-70
2021/11/18 04:11:17;;;;;;;24.23;6.22;;;9.40;85.80;;;;;;4977017;28;94180;-70
2021/11/18 04:13:44;;;;;;;24.85;7.50;;;9.50;85.80;;;;;;4977151;28;95907;-70
2021/11/18 04:16:11;;;;;;;22.67;6.75;;;9.50;85.70;;;;;;4995666;28;92496;-70
2021/11/18 04:18:39;;;;;;;23.80;7.15;;;9.50;85.50;;;;;;4977782;28;92564;-70
2021/11/18 04:21:07;;;;;;;21.88;6.25;;;9.50;85.40;;;;;;4959966;28;98187;-70
2021/11/18 04:23:34;;;;;;;24.45;7.13;;;9.50;85.40;;;;;;4977538;28;96788;-70
2021/11/18 04:26:04;;;;;;;28.85;7.25;;;9.50;85.20;;;;;;4977100;28;92451;-70
2021/11/18 04:28:36;;;;;;;26.55;6.60;;;9.60;85.30;;;;;;4977627;28;92484;-70
2021/11/18 04:31:09;;;;;;;17.92;6.63;;;9.50;85.80;;;;;;4977163;28;95464;-70
2021/11/18 04:33:37;;;;;;;;;;;9.60;85.20;;;;;;4978484;28;92418;-70
2021/11/18 04:36:08;;;;;;;20.02;5.95;;;9.50;85.40;;;;;;4962474;28;92568;-70
2021/11/18 04:38:34;;;;;;;24.65;6.38;;;9.50;85.30;;;;;;4995652;28;91740;-70
2021/11/18 04:41:04;;;;;;;20.33;6.40;;;9.50;85.20;;;;;;4977195;28;95462;-70
2021/11/18 04:43:31;;;;;;;24.70;6.88;;;9.60;85.20;;;;;;4976846;28;94847;-70
2021/11/18 04:46:02;;;;;;;22.65;5.95;;;9.60;85.10;;;;;;4975992;28;94869;-70
2021/11/18 04:48:29;;;;;;;26.90;6.43;;;9.60;85.20;;;;;;4961202;28;92594;-70
2021/11/18 04:50:57;;;;;;;28.73;6.85;;;9.60;84.90;;;;;;4994836;28;93320;-70
2021/11/18 04:53:28;;;;;;;22.08;7.00;;;9.60;85.00;;;;;;4976970;28;94135;-70
2021/11/18 04:56:00;;;;;;;20.20;6.45;;;9.60;84.90;;;;;;4977175;28;92483;-70
2021/11/18 04:58:36;;;;;;;26.00;6.80;;;9.60;85.00;;;;;;4977520;28;92571;-70
2021/11/18 05:01:04;;;;;;;25.42;6.47;;;9.60;85.00;;;;;;4976759;28;95951;-70
2021/11/18 05:03:33;;;;;;;22.23;5.95;;;9.60;85.00;;;;;;4977324;28;95102;-70
2021/11/18 05:06:01;;;;;;;20.60;6.15;;;9.60;84.80;;;;;;4994725;28;92385;-70
2021/11/18 05:08:28;;;;;;;22.50;6.50;;;9.60;85.10;;;;;;4960672;28;92551;-70
2021/11/18 05:10:56;;;;;;;20.83;6.35;;;9.60;85.10;;;;;;4975487;28;98111;-70
2021/11/18 05:13:27;;;;;;;19.20;6.13;;;9.60;85.20;;;;;;4976877;28;97625;-70
2021/11/18 05:16:01;;;;;;;30.80;6.97;;;9.60;85.00;;;;;;4976679;28;92880;-70
2021/11/18 05:18:30;;;;;;;23.73;6.93;;;9.60;85.10;;;;;;4977206;28;92867;-70
2021/11/18 05:20:57;;;;;;;32.30;7.13;;;9.60;84.90;;;;;;4994714;28;93028;-70
2021/11/18 05:23:27;;;;;;;26.50;7.30;;;9.60;85.00;;;;;;4977685;28;95077;-70
2021/11/18 05:25:57;;;;;;;22.10;6.82;;;9.60;84.90;;;;;;4980257;28;92524;-70
2021/11/18 05:28:26;;;;;;;26.88;6.93;;;9.60;84.90;;;;;;4980416;28;91800;-70
2021/11/18 05:30:55;;;;;;;20.33;5.90;;;9.60;85.00;;;;;;4979969;28;95530;-70
2021/11/18 05:33:26;;;;;;;25.83;7.53;;;9.60;84.90;;;;;;4979991;28;94345;-70
2021/11/18 05:35:56;;;;;;;21.58;7.43;;;9.60;84.90;;;;;;4978915;28;94867;-70
2021/11/18 05:38:24;;;;;;;25.58;7.13;;;9.60;85.10;;;;;;4980166;28;92482;-70
2021/11/18 05:40:54;;;;;;;21.00;6.82;;;9.60;85.20;;;;;;4980027;28;95114;-75
2021/11/18 05:43:27;;;;;;;25.63;7.15;;;9.60;85.20;;;;;;4947460;28;95600;-75
2021/11/18 05:45:56;;;;;;;24.05;6.65;;;9.70;85.20;;;;;;4957043;28;92542;-75
2021/11/18 05:48:26;;;;;;;23.88;6.80;;;9.60;85.10;;;;;;4957364;28;92474;-75
2021/11/18 05:50:56;;;;;;;18.52;5.80;;;9.60;84.90;;;;;;4940841;28;95472;-75
2021/11/18 05:53:30;;;;;;;28.98;7.18;;;9.60;85.20;;;;;;4958375;28;92918;-75
2021/11/18 05:55:59;;;;;;;21.52;6.88;;;9.70;85.30;;;;;;4956842;28;92480;-75
2021/11/18 05:58:28;;;;;;;23.58;6.35;;;9.60;85.10;;;;;;4957015;28;92413;-75
2021/11/18 06:00:58;;;;;;;25.40;6.43;;;9.70;85.30;;;;;;4955192;28;97907;-75
2021/11/18 06:03:27;;;;;;;23.58;6.63;;;9.60;85.10;;;;;;4956666;28;98214;-75
2021/11/18 06:05:54;;;;;;;28.73;6.80;;;9.60;85.10;;;;;;4956499;28;92488;-75
2021/11/18 06:08:21;;;;;;;18.77;7.18;;;9.70;85.00;;;;;;4956515;28;92486;-75
2021/11/18 06:10:50;;;;;;;24.23;7.10;;;9.70;84.90;;;;;;4956628;28;95485;-75
2021/11/18 06:13:18;;;;;;;33.28;7.35;;;9.70;84.90;;;;;;4956308;28;95364;-75
2021/11/18 06:15:46;;;;;;;24.77;7.13;;;9.70;84.90;;;;;;4956762;28;92557;-75
2021/11/18 06:18:14;;;;;;;22.50;6.82;;;9.60;85.10;;;;;;4940775;28;91833;-75
2021/11/18 06:20:41;;;;;;;21.80;6.75;;;9.60;85.00;;;;;;4956246;28;95686;-75
2021/11/18 06:23:10;;;;;;;20.85;6.05;;;9.70;84.90;;;;;;4956140;28;95522;-75
2021/11/18 06:25:39;;;;;;;23.40;6.28;;;9.70;84.80;;;;;;4955563;28;94924;-75
2021/11/18 06:28:09;;;;;;;26.27;7.55;;;9.70;84.70;;;;;;4956344;28;92855;-75
2021/11/18 06:31:05;;;;;;;22.10;7.15;;;9.70;85.00;;;;;;4956275;28;95825;-75
2021/11/18 06:33:34;;;;;;;17.15;6.30;;;9.70;84.80;;;;;;4956292;28;95413;-75
2021/11/18 06:36:03;;;;;;;25.77;6.30;;;9.70;84.90;;;;;;4955352;28;92428;-75
2021/11/18 06:38:38;;;;;;;20.10;6.28;;;9.70;84.80;;;;;;4941168;28;92441;-75
2021/11/18 06:41:08;;;;;;;26.17;6.75;;;9.70;84.90;;;;;;4955975;28;95688;-75
2021/11/18 06:43:36;;;;;;;25.02;6.38;;;9.70;85.00;;;;;;4957524;28;95282;-75
2021/11/18 06:46:05;;;;;;;27.20;6.72;;;9.70;85.20;;;;;;4978783;28;92490;-75
2021/11/18 06:48:32;;;;;;;18.23;6.18;;;9.70;84.80;;;;;;4979057;28;92493;-75
2021/11/18 06:51:20;;;;;;;24.85;6.22;;;9.70;85.10;;;;;;4995597;28;95634;-75
2021/11/18 06:53:50;;;;;;;26.90;6.28;;;9.70;85.00;;;;;;4978589;28;97310;-76
2021/11/18 06:56:22;;;;;;;19.57;5.97;;;9.80;85.30;;;;;;4978332;28;92620;-75
2021/11/18 06:58:51;;;;;;;21.38;6.38;;;9.70;84.60;;;;;;4978586;28;92583;-75
2021/11/18 07:01:20;;;;;;;22.52;6.05;;;9.80;84.40;;;;;;4978243;28;95893;-75
2021/11/18 07:03:47;;;;;;;26.35;6.22;;;9.80;84.50;;;;;;4978578;28;95455;-76
2021/11/18 07:06:18;;;;;;;20.60;5.60;;;9.80;84.70;;;;;;4996833;28;92462;-75
2021/11/18 07:08:46;;;;;;;25.73;6.28;;;9.80;84.50;;;;;;4979195;28;91755;-76
2021/11/18 07:11:17;;;;;;;19.80;6.32;;;9.80;84.60;;;;;;4978257;28;95468;-75
2021/11/18 07:13:46;;;;;;;34.10;11.77;;;9.80;84.20;;;;;;4978260;28;95417;-75
2021/11/18 07:16:16;;;;;;;23.10;8.60;;;9.80;84.20;;;;;;4976794;28;94842;-76
2021/11/18 07:18:45;;;;;;;30.00;7.78;;;9.90;84.10;;;;;;4978461;28;92444;-75
2021/11/18 07:21:13;;;;;;;22.80;6.25;;;9.90;84.40;;;;;;4977869;28;95607;-75
2021/11/18 07:23:41;;;;;;;24.67;5.90;;;9.90;84.20;;;;;;4978211;28;95332;-75
2021/11/18 07:26:09;;;;;;;20.05;6.05;;;9.90;83.90;;;;;;4962001;28;92577;-75
2021/11/18 07:28:39;;;;;;;28.98;6.85;;;9.90;84.00;;;;;;4978405;28;92543;-76
2021/11/18 07:31:09;;;;;;;22.60;5.97;;;10.00;84.00;;;;;;4978179;28;95277;-75
2021/11/18 07:33:44;;;;;;;24.55;6.85;;;10.00;83.80;;;;;;4978422;28;95485;-76
2021/11/18 07:36:11;;;;;;;22.50;7.25;;;10.00;84.10;;;;;;4977998;28;92504;-76
2021/11/18 07:38:40;;;;;;;18.25;5.18;;;10.00;83.80;;;;;;4978262;28;92544;-76
2021/11/18 07:41:08;;;;;;;25.15;5.95;;;10.10;83.60;;;;;;4976620;28;98708;-75
2021/11/18 07:43:41;;;;;;;21.50;5.45;;;10.00;83.60;;;;;;4974342;28;97538;-75
2021/11/18 07:46:47;;;;;;;20.40;6.30;;;10.10;83.70;;;;;;4974349;28;92470;-75
2021/11/18 07:49:24;;;;;;;24.38;8.02;;;10.10;83.40;;;;;;4959606;28;92613;-75
2021/11/18 07:51:51;;;;;;;25.67;7.18;;;10.10;83.30;;;;;;4974521;28;95861;-76
2021/11/18 07:54:21;;;;;;;20.30;6.22;;;10.20;83.40;;;;;;4974145;28;95778;-71
2021/11/18 07:56:49;;;;;;;26.30;6.53;;;10.20;83.50;;;;;;4974536;28;92462;-70
2021/11/18 07:59:18;;;;;;;22.27;5.60;;;10.20;83.20;;;;;;4974644;28;91791;-70
2021/11/18 08:01:49;;;;;;;16.13;5.40;;;10.20;83.20;;;;;;4974244;28;96009;-71
2021/11/18 08:04:17;;;;;;;22.25;6.05;;;10.20;82.90;;;;;;4974394;28;94276;-70
2021/11/18 08:06:46;;;;;;;22.42;6.03;;;10.30;83.10;;;;;;4973447;28;94909;-70
2021/11/18 08:09:14;;;;;;;24.90;6.55;;;10.40;83.00;;;;;;4974106;28;92641;-70
2021/11/18 08:11:51;;;;;;;21.48;6.43;;;10.40;82.90;;;;;;4974094;28;95726;-70
2021/11/18 08:14:20;;;;;;;22.08;5.93;;;10.40;82.50;;;;;;4974193;28;95760;-70
2021/11/18 08:16:51;;;;;;;19.80;5.13;;;10.40;82.60;;;;;;4974707;28;92660;-75
2021/11/18 08:19:19;;;;;;;18.90;5.70;;;10.50;82.40;;;;;;4974272;28;92502;-76
2021/11/18 08:21:50;;;;;;;15.40;5.20;;;10.50;82.30;;;;;;4973917;28;96025;-76
2021/11/18 08:24:23;;;;;;;19.27;6.43;;;10.50;82.30;;;;;;4974045;28;95476;-76
2021/11/18 08:26:52;;;;;;;19.10;4.90;;;10.60;82.20;;;;;;4975727;28;92408;-70
2021/11/18 08:29:21;;;;;;;19.85;5.88;;;10.60;82.30;;;;;;4974345;28;92794;-70
2021/11/18 08:31:50;;;;;;;19.05;6.10;;;10.70;82.00;;;;;;4972984;28;97706;-70
2021/11/18 08:34:27;;;;;;;18.58;5.72;;;10.70;81.80;;;;;;4973867;28;97489;-71
2021/11/18 08:37:02;;;;;;;19.95;5.55;;;10.70;81.60;;;;;;4974418;28;92516;-71
2021/11/18 08:39:30;;;;;;;18.85;5.75;;;10.80;81.60;;;;;;4975246;28;92431;-71
2021/11/18 08:42:01;;;;;;;21.60;5.63;;;10.80;81.30;;;;;;4974675;28;95784;-71
2021/11/18 08:44:31;;;;;;;21.55;7.03;;;10.90;81.00;;;;;;4960808;28;95009;-70
2021/11/18 08:46:59;;;;;;;20.98;5.53;;;10.90;80.80;;;;;;4977389;28;92497;-70
2021/11/18 08:49:28;;;;;;;18.05;5.07;;;10.90;80.70;;;;;;4977835;28;91748;-71
2021/11/18 08:51:57;;;;;;;22.67;5.20;;;11.00;80.70;;;;;;4977007;28;95714;-71
2021/11/18 08:54:29;;;;;;;19.90;5.88;;;11.00;80.80;;;;;;4976725;28;95267;-71
2021/11/18 08:56:59;;;;;;;23.20;5.32;;;11.00;80.60;;;;;;4976175;28;94926;-70
2021/11/18 08:59:30;;;;;;;19.13;5.53;;;11.10;80.70;;;;;;4979661;28;92591;-70
2021/11/18 09:02:23;;;;;;;17.35;5.03;;;11.10;80.10;;;;;;4980404;28;94277;-70
2021/11/18 09:04:51;;;;;;;22.20;5.45;;;11.20;80.00;;;;;;4980600;28;95451;-71
2021/11/18 09:07:19;;;;;;;20.88;5.82;;;11.30;79.70;;;;;;4980611;28;92633;-70
2021/11/18 09:09:46;;;;;;;19.02;5.20;;;11.40;79.60;;;;;;4980563;28;93142;-70
2021/11/18 09:12:14;;;;;;;14.02;4.85;;;11.50;79.10;;;;;;4964283;28;95354;-71
2021/11/18 09:14:44;;;;;;;14.05;4.55;;;11.60;78.50;;;;;;4964606;28;95401;-70
2021/11/18 09:17:13;;;;;;;16.83;5.18;;;11.70;78.50;;;;;;4980405;28;92473;-70
2021/11/18 09:20:00;;;;;;;15.95;4.80;;;11.80;78.10;;;;;;4980459;28;92509;-70
2021/11/18 09:22:28;;;;;;;12.63;4.63;;;11.90;77.80;;;;;;4978584;28;97846;-70
2021/11/18 09:24:59;;;;;;;19.70;5.28;;;12.00;77.30;;;;;;4980126;28;96656;-70
2021/11/18 09:27:42;;;;;;;15.13;5.03;;;12.10;77.00;;;;;;4998194;28;92418;-70
2021/11/18 09:30:12;;;;;;;;;;;12.20;76.80;;;;;;4980648;28;92551;-70
2021/11/18 09:32:49;;;;;;;26.35;4.93;;;12.00;77.00;;;;;;4981400;28;95464;-71
2021/11/18 09:35:33;;;;;;;16.13;5.07;;;12.10;76.60;;;;;;4979924;28;95494;-70
2021/11/18 09:38:02;;;;;;;17.40;5.38;;;12.20;76.50;;;;;;4980274;28;92916;-70
2021/11/18 09:40:45;;;;;;;15.93;4.53;;;12.10;76.50;;;;;;4980289;28;91720;-70
2021/11/18 09:43:34;;;;;;;14.23;4.82;;;12.20;76.50;;;;;;4979151;28;95571;-71
2021/11/18 09:46:22;;;;;;;18.63;5.95;;;12.20;76.30;;;;;;4979716;28;94140;-71
2021/11/18 09:49:40;;;;;;;16.33;5.47;;;12.20;76.20;;;;;;4978277;28;94947;-71
2021/11/18 09:52:31;;;;;;;15.20;4.93;;;12.20;76.30;;;;;;4897911;28;92602;-70
2021/11/18 09:55:03;;;;;;;15.80;4.97;;;12.10;76.50;;;;;;4994341;28;94205;-70
2021/11/18 09:57:52;;;;;;;21.83;5.03;;;12.00;76.80;;;;;;4963458;28;94034;-70
2021/11/18 10:00:53;;;;;;;23.90;6.18;;;12.10;76.60;;;;;;4979940;28;92880;-71
2021/11/18 10:03:36;;;;;;;22.23;5.68;;;12.10;76.60;;;;;;4979682;28;92987;-70
2021/11/18 10:06:23;;;;;;;17.23;5.25;;;12.10;76.90;;;;;;4979396;28;94319;-71
2021/11/18 10:09:26;;;;;;;13.50;4.75;;;12.20;76.80;;;;;;4979381;28;95287;-70
2021/11/18 10:12:18;;;;;;;14.18;4.22;;;12.20;76.40;;;;;;4979027;28;92378;-70
2021/11/18 10:14:57;;;;;;;16.70;5.10;;;12.30;76.60;;;;;;4978694;28;93639;-72
2021/11/18 10:17:37;;;;;;;13.48;3.97;;;12.30;76.50;;;;;;4977241;28;98145;-70
2021/11/18 10:20:34;;;;;;;21.95;5.93;;;12.30;76.20;;;;;;4992711;28;96115;-71
2021/11/18 10:23:07;;;;;;;20.73;5.32;;;12.40;76.40;;;;;;4997570;28;92358;-75
2021/11/18 10:25:45;;;;;;;12.57;4.50;;;12.40;76.30;;;;;;4997023;28;92418;-76
2021/11/18 10:28:21;;;;;;;16.27;4.22;;;12.50;75.90;;;;;;4979485;28;93092;-70
2021/11/18 10:31:26;;;;;;;19.33;5.05;;;12.60;75.90;;;;;;4996809;28;92894;-70
2021/11/18 10:34:26;;;;;;;19.00;4.90;;;12.70;75.70;;;;;;4980032;28;92506;-70
2021/11/18 10:37:02;;;;;;;19.08;4.63;;;12.70;75.40;;;;;;4960691;28;91885;-70
2021/11/18 10:40:16;;;;;;;16.77;4.97;;;12.80;75.40;;;;;;4997226;28;93439;-70
2021/11/18 10:43:14;;;;;;;19.17;4.13;;;12.90;75.20;;;;;;4895938;28;92904;-70
2021/11/18 10:45:51;;;;;;;18.90;3.72;;;13.00;74.90;;;;;;4879844;28;95467;-70
2021/11/18 10:48:21;;;;;;;20.58;4.78;;;13.10;74.70;;;;;;4978876;28;92493;-70
2021/11/18 10:51:00;;;;;;;20.45;4.15;;;13.20;74.30;;;;;;4996335;28;93157;-70
2021/11/18 10:53:29;;;;;;;16.25;4.20;;;13.40;73.30;;;;;;4996796;28;92892;-71
2021/11/18 10:55:59;;;;;;;21.52;4.03;;;13.40;72.50;;;;;;4978385;28;92498;-70
2021/11/18 10:58:37;;;;;;;;;;;13.60;72.20;;;;;;4997488;28;92585;-70
2021/11/18 11:01:29;;;;;;;14.90;4.05;;;13.60;71.30;;;;;;4980112;28;93137;-71
2021/11/18 11:03:59;;;;;;;12.35;3.17;;;13.80;71.20;;;;;;4978787;28;94283;-71
2021/11/18 11:06:40;;;;;;;20.67;4.35;;;13.90;70.70;;;;;;4996422;28;92494;-71
2021/11/18 11:09:10;;;;;;;14.02;3.90;;;14.10;70.20;;;;;;4996361;28;92511;-70
2021/11/18 11:12:10;;;;;;;16.00;4.25;;;14.00;69.20;;;;;;4977017;28;96474;-70
2021/11/18 11:14:56;;;;;;;16.80;3.92;;;14.10;68.50;;;;;;4996105;28;95117;-70
2021/11/18 11:17:47;;;;;;;14.27;3.42;;;14.20;68.80;;;;;;4996813;28;92483;-71
2021/11/18 11:20:41;;;;;;;23.02;4.95;;;14.20;68.70;;;;;;4978516;28;92465;-71
2021/11/18 11:23:19;;;;;;;20.05;4.57;;;14.20;68.30;;;;;;4996423;28;93156;-71
2021/11/18 11:26:15;;;;;;;19.08;4.32;;;14.20;68.10;;;;;;4977802;28;94044;-70
2021/11/18 11:29:02;;;;;;;14.73;3.55;;;14.30;68.00;;;;;;4996270;28;92410;-70
2021/11/18 11:31:51;;;;;;;18.33;3.90;;;14.30;68.50;;;;;;4978596;28;91674;-71
2021/11/18 11:34:39;;;;;;;19.30;4.90;;;14.30;67.90;;;;;;4996371;28;93041;-71
2021/11/18 11:37:41;;;;;;;18.73;3.83;;;14.50;67.80;;;;;;4996574;28;92444;-71
2021/11/18 11:40:37;;;;;;;16.95;3.78;;;14.50;67.30;;;;;;4976658;28;94923;-70
2021/11/18 11:43:31;;;;;;;17.75;4.50;;;14.50;67.60;;;;;;4974698;28;92610;-71
2021/11/18 11:46:28;;;;;;;19.85;4.53;;;14.50;67.10;;;;;;4975877;28;93097;-70
2021/11/18 11:49:37;;;;;;;19.52;4.28;;;14.40;68.20;;;;;;4974835;28;92859;-71
2021/11/18 11:52:32;;;;;;;13.80;4.05;;;14.50;67.70;;;;;;4966879;28;92463;-71
2021/11/18 11:55:07;;;;;;;15.05;3.92;;;14.50;67.60;;;;;;4974505;28;92360;-71
2021/11/18 11:57:49;;;;;;;15.45;4.20;;;14.50;67.60;;;;;;4975883;28;92851;-76
2021/11/18 12:00:31;;;;;;;19.60;4.03;;;14.60;67.50;;;;;;4976425;28;92882;-76
2021/11/18 12:03:36;;;;;;;17.23;3.88;;;14.60;67.30;;;;;;4975856;28;92505;-76
2021/11/18 12:06:20;;;;;;;16.20;4.50;;;14.80;67.50;;;;;;4975640;28;92827;-76
2021/11/18 12:08:57;;;;;;;11.57;3.40;;;14.80;67.40;;;;;;4974293;28;95584;-76
2021/11/18 12:11:45;;;;;;;16.90;4.18;;;14.90;67.00;;;;;;4975901;28;95225;-76
2021/11/18 12:14:43;;;;;;;16.45;3.75;;;15.00;66.80;;;;;;4974548;28;92369;-71
2021/11/18 12:17:19;;;;;;;18.98;5.63;;;15.10;66.20;;;;;;4959967;28;92498;-71
2021/11/18 12:19:58;;;;;;;15.48;4.25;;;15.10;66.40;;;;;;4975473;28;96018;-71
2021/11/18 12:22:29;;;;;;;17.92;4.95;;;15.20;65.90;;;;;;4973975;28;95600;-71
2021/11/18 12:25:15;;;;;;;16.17;4.20;;;15.20;65.70;;;;;;4974114;28;92499;-76
2021/11/18 12:28:08;;;;;;;19.58;5.35;;;15.30;65.70;;;;;;4976312;28;91714;-77
2021/11/18 12:30:47;;;;;;;20.90;5.30;;;15.30;65.70;;;;;;4961995;28;93118;-76
2021/11/18 12:33:17;;;;;;;15.00;4.55;;;15.20;66.20;;;;;;4976735;28;92905;-76
2021/11/18 12:35:56;;;;;;;20.67;4.55;;;15.10;66.10;;;;;;4977712;28;94826;-76
2021/11/18 12:38:29;;;;;;;21.55;4.90;;;15.20;66.60;;;;;;4979104;28;92523;-76
2021/11/18 12:41:34;;;;;;;17.83;4.85;;;15.20;66.10;;;;;;4978920;28;93071;-76
2021/11/18 12:44:55;;;;;;;18.83;4.90;;;15.20;66.50;;;;;;4994397;28;92911;-76
2021/11/18 12:47:40;;;;;;;20.30;5.65;;;15.10;66.70;;;;;;4899020;28;92985;-76
2021/11/18 12:50:10;;;;;;;20.05;4.70;;;15.10;67.00;;;;;;4990950;28;92384;-77
2021/11/18 12:52:41;;;;;;;18.15;4.95;;;15.00;67.00;;;;;;5007449;28;92991;-76
2021/11/18 12:55:37;;;;;;;18.50;5.38;;;15.00;67.00;;;;;;5000085;28;92875;-76
2021/11/18 12:58:25;;;;;;;20.65;5.03;;;15.00;67.40;;;;;;4967439;28;93138;-76
2021/11/18 13:01:20;;;;;;;12.60;4.68;;;15.00;67.10;;;;;;4998432;28;92470;-76
2021/11/18 13:03:50;;;;;;;18.35;6.40;;;14.90;67.60;;;;;;4979226;28;95458;-76
2021/11/18 13:06:32;;;;;;;22.55;5.88;;;14.70;68.00;;;;;;4997096;28;95277;-77
2021/11/18 13:09:00;;;;;;;18.33;4.60;;;14.80;68.20;;;;;;4998578;28;92445;-77
2021/11/18 13:11:27;;;;;;;16.77;4.97;;;14.70;68.30;;;;;;4998607;28;92425;-76
2021/11/18 13:14:12;;;;;;;18.63;5.45;;;14.60;68.40;;;;;;4997701;28;93192;-76
2021/11/18 13:16:48;;;;;;;17.40;4.72;;;14.60;68.80;;;;;;4998470;28;92513;-76
2021/11/18 13:19:31;;;;;;;17.38;5.00;;;14.50;69.00;;;;;;4998276;28;92592;-76
2021/11/18 13:22:01;;;;;;;14.60;4.25;;;14.60;69.10;;;;;;4997045;28;91685;-76